createdAt,value
2018-09-24T00:01:48.086Z,19.83
2018-09-24T00:04:17.331Z,19.80
2018-09-24T00:06:46.659Z,19.68
2018-09-24T00:09:15.919Z,19.59
2018-09-24T00:11:45.181Z,19.56
2018-09-24T00:14:14.638Z,19.57
2018-09-24T00:16:44.087Z,19.56
2018-09-24T00:19:13.192Z,19.46
2018-09-24T00:21:42.591Z,19.41
2018-09-24T00:24:11.923Z,19.36
2018-09-24T00:26:41.128Z,19.37
2018-09-24T00:29:10.397Z,19.38
2018-09-24T00:31:39.471Z,19.34
2018-09-24T00:34:08.572Z,19.31
2018-09-24T00:36:37.610Z,19.44
2018-09-24T00:39:08.724Z,19.53
2018-09-24T00:41:38.302Z,19.53
2018-09-24T00:44:07.803Z,19.46
2018-09-24T00:46:37.047Z,19.32
2018-09-24T00:49:06.364Z,19.28
2018-09-24T00:51:35.299Z,19.23
2018-09-24T00:54:04.523Z,19.19
2018-09-24T00:56:33.361Z,19.15
2018-09-24T00:59:02.667Z,19.05
2018-09-24T01:01:31.774Z,18.94
2018-09-24T01:04:01.079Z,19.14
2018-09-24T01:06:30.431Z,19.09
2018-09-24T01:08:59.763Z,19.08
2018-09-24T01:11:29.148Z,19.08
2018-09-24T01:13:58.405Z,19.07
2018-09-24T01:16:27.417Z,19.12
2018-09-24T01:18:56.756Z,19.08
2018-09-24T01:21:25.931Z,19.01
2018-09-24T01:23:55.039Z,18.94
2018-09-24T01:26:24.428Z,19.07
2018-09-24T01:28:53.347Z,19.03
2018-09-24T01:31:22.525Z,19.03
2018-09-24T01:33:51.895Z,19.05
2018-09-24T01:36:21.137Z,18.95
2018-09-24T01:38:50.391Z,18.92
2018-09-24T01:41:19.590Z,18.94
2018-09-24T01:43:48.584Z,18.96
2018-09-24T01:46:17.771Z,18.85
2018-09-24T01:48:47.071Z,18.80
2018-09-24T01:51:16.048Z,18.79
2018-09-24T01:53:45.367Z,18.72
2018-09-24T01:56:14.712Z,18.67
2018-09-24T01:58:44.037Z,18.63
2018-09-24T02:01:13.231Z,18.68
2018-09-24T02:03:42.207Z,18.65
2018-09-24T02:06:11.215Z,18.51
2018-09-24T02:08:43.791Z,18.63
2018-09-24T02:11:13.285Z,18.67
2018-09-24T02:13:49.644Z,18.55
2018-09-24T02:16:19.491Z,18.66
2018-09-24T02:18:49.468Z,18.63
2018-09-24T02:21:19.219Z,18.50
2018-09-24T02:23:48.427Z,18.59
2018-09-24T02:26:17.578Z,18.51
2018-09-24T02:28:46.835Z,18.51
2018-09-24T02:31:15.720Z,18.51
2018-09-24T02:33:44.749Z,18.55
2018-09-24T02:36:13.783Z,18.51
2018-09-24T02:38:42.887Z,18.45
2018-09-24T02:41:12.162Z,18.42
2018-09-24T02:43:41.537Z,18.32
2018-09-24T02:46:10.732Z,18.26
2018-09-24T02:48:39.771Z,18.29
2018-09-24T02:51:08.762Z,18.28
2018-09-24T02:53:40.916Z,18.30
2018-09-24T02:56:10.491Z,18.33
2018-09-24T02:58:39.546Z,18.36
2018-09-24T03:01:08.974Z,18.28
2018-09-24T03:03:38.227Z,18.26
2018-09-24T03:06:06.968Z,18.25
2018-09-24T03:08:37.227Z,18.27
2018-09-24T03:11:06.543Z,18.29
2018-09-24T03:13:35.424Z,18.24
2018-09-24T03:16:04.564Z,18.27
2018-09-24T03:18:33.819Z,18.23
2018-09-24T03:21:03.028Z,18.14
2018-09-24T03:23:32.316Z,18.25
2018-09-24T03:26:01.275Z,18.24
2018-09-24T03:28:30.199Z,18.17
2018-09-24T03:30:59.184Z,18.10
2018-09-24T03:33:28.692Z,18.04
2018-09-24T03:35:58.035Z,18.15
2018-09-24T03:38:27.264Z,18.12
2018-09-24T03:40:56.512Z,17.99
2018-09-24T03:43:25.784Z,17.88
2018-09-24T03:45:55.108Z,17.80
2018-09-24T03:48:24.595Z,17.71
2018-09-24T03:50:53.799Z,17.60
2018-09-24T03:53:23.084Z,17.49
2018-09-24T03:55:52.142Z,17.47
2018-09-24T03:58:21.519Z,17.64
2018-09-24T04:00:51.303Z,17.68
2018-09-24T04:03:20.637Z,17.58
2018-09-24T04:05:54.469Z,17.65
2018-09-24T04:08:28.971Z,17.73
2018-09-24T04:11:03.312Z,17.81
2018-09-24T04:13:37.494Z,17.71
2018-09-24T04:16:11.755Z,17.62
2018-09-24T04:18:45.701Z,17.57
2018-09-24T04:21:19.973Z,17.67
2018-09-24T04:23:54.313Z,17.61
2018-09-24T04:26:28.471Z,17.62
2018-09-24T04:29:02.881Z,17.59
2018-09-24T04:31:37.191Z,17.60
2018-09-24T04:34:11.636Z,17.63
2018-09-24T04:36:45.792Z,17.68
2018-09-24T04:39:20.046Z,17.65
2018-09-24T04:41:54.191Z,17.62
2018-09-24T04:44:28.156Z,17.62
2018-09-24T04:47:02.386Z,17.54
2018-09-24T04:49:36.820Z,17.55
2018-09-24T04:52:11.215Z,17.72
2018-09-24T04:54:45.543Z,17.64
2018-09-24T04:57:19.624Z,17.70
2018-09-24T04:59:53.686Z,17.79
2018-09-24T05:02:27.737Z,17.89
2018-09-24T05:05:02.013Z,18.01
2018-09-24T05:07:36.284Z,18.20
2018-09-24T05:10:10.863Z,18.25
2018-09-24T05:12:45.270Z,18.26
2018-09-24T05:15:19.787Z,18.33
2018-09-24T05:17:54.140Z,18.22
2018-09-24T05:20:28.047Z,18.29
2018-09-24T05:23:02.187Z,18.31
2018-09-24T05:25:36.370Z,18.34
2018-09-24T05:28:10.607Z,18.32
2018-09-24T05:30:45.104Z,18.47
2018-09-24T05:33:19.264Z,18.61
2018-09-24T05:35:53.342Z,18.71
2018-09-24T05:38:27.553Z,18.72
2018-09-24T05:41:01.684Z,18.76
2018-09-24T05:43:35.591Z,18.86
2018-09-24T05:46:10.067Z,18.90
2018-09-24T05:48:44.510Z,19.07
2018-09-24T05:51:18.800Z,19.15
2018-09-24T05:53:53.084Z,19.22
2018-09-24T05:56:27.357Z,19.31
2018-09-24T05:59:01.705Z,19.45
2018-09-24T06:01:35.834Z,19.57
2018-09-24T06:04:10.175Z,19.67
2018-09-24T06:06:44.390Z,19.71
2018-09-24T06:09:18.801Z,19.81
2018-09-24T06:11:52.743Z,19.87
2018-09-24T06:14:26.999Z,19.96
2018-09-24T06:17:01.487Z,19.93
2018-09-24T06:19:35.931Z,20.04
2018-09-24T06:22:10.096Z,20.02
2018-09-24T06:24:44.368Z,19.85
2018-09-24T06:27:18.523Z,19.72
2018-09-24T06:29:52.687Z,19.69
2018-09-24T06:32:27.018Z,19.69
2018-09-24T06:35:01.311Z,19.68
2018-09-24T06:37:35.406Z,19.68
2018-09-24T06:40:09.631Z,19.86
2018-09-24T06:42:43.894Z,19.90
2018-09-24T06:45:18.377Z,20.04
2018-09-24T06:47:52.359Z,20.18
2018-09-24T06:50:26.591Z,20.25
2018-09-24T06:53:00.833Z,20.24
2018-09-24T06:55:35.150Z,20.46
2018-09-24T06:58:09.360Z,20.75
2018-09-24T07:00:43.287Z,21.07
2018-09-24T07:03:17.499Z,20.98
2018-09-24T07:05:51.661Z,21.13
2018-09-24T07:08:25.915Z,21.37
2018-09-24T07:11:00.124Z,21.53
2018-09-24T07:13:34.241Z,21.72
2018-09-24T07:16:08.407Z,21.94
2018-09-24T07:18:42.524Z,22.08
2018-09-24T07:21:16.723Z,22.05
2018-09-24T07:23:51.010Z,22.14
2018-09-24T07:26:24.926Z,22.19
2018-09-24T07:28:59.099Z,22.27
2018-09-24T07:31:32.963Z,22.38
2018-09-24T07:34:07.204Z,22.49
2018-09-24T07:36:41.196Z,22.45
2018-09-24T07:39:15.780Z,22.53
2018-09-24T07:41:49.939Z,22.69
2018-09-24T07:44:24.166Z,23.10
2018-09-24T07:46:58.503Z,23.55
2018-09-24T07:49:32.679Z,24.05
2018-09-24T07:52:06.990Z,24.44
2018-09-24T07:54:41.116Z,24.63
2018-09-24T07:57:15.362Z,24.98
2018-09-24T07:59:49.740Z,24.87
2018-09-24T08:02:23.986Z,24.76
2018-09-24T08:05:05.051Z,24.87
2018-09-24T08:07:39.091Z,24.83
2018-09-24T08:10:13.367Z,24.87
2018-09-24T08:12:47.685Z,24.90
2018-09-24T08:15:21.943Z,24.96
2018-09-24T08:17:56.356Z,25.00
2018-09-24T08:20:30.647Z,24.97
2018-09-24T08:23:04.535Z,24.72
2018-09-24T08:25:38.663Z,24.47
2018-09-24T08:28:12.663Z,24.62
2018-09-24T08:30:46.893Z,24.83
2018-09-24T08:33:21.092Z,25.01
2018-09-24T08:35:55.323Z,25.15
2018-09-24T08:38:29.391Z,25.20
2018-09-24T08:41:03.579Z,25.24
2018-09-24T08:43:37.708Z,25.27
2018-09-24T08:46:11.903Z,25.26
2018-09-24T08:48:46.315Z,25.20
2018-09-24T08:51:20.491Z,25.30
2018-09-24T08:53:54.799Z,25.36
2018-09-24T08:56:29.035Z,25.42
2018-09-24T08:59:03.076Z,25.42
2018-09-24T09:01:37.471Z,25.27
2018-09-24T09:04:11.560Z,25.29
2018-09-24T09:06:45.831Z,25.41
2018-09-24T09:09:19.983Z,25.42
2018-09-24T09:11:54.095Z,25.55
2018-09-24T09:14:28.179Z,25.68
2018-09-24T09:17:02.574Z,25.83
2018-09-24T09:19:36.835Z,25.94
2018-09-24T09:22:10.971Z,26.04
2018-09-24T09:24:45.139Z,26.21
2018-09-24T09:27:19.304Z,26.27
2018-09-24T09:29:53.544Z,26.49
2018-09-24T09:32:27.807Z,26.64
2018-09-24T09:35:01.936Z,26.85
2018-09-24T09:37:36.207Z,26.81
2018-09-24T09:40:10.651Z,26.61
2018-09-24T09:42:45.010Z,26.61
2018-09-24T09:45:19.363Z,26.71
2018-09-24T09:47:53.531Z,26.98
2018-09-24T09:50:27.847Z,26.98
2018-09-24T09:53:02.120Z,27.12
2018-09-24T09:55:36.283Z,27.36
2018-09-24T09:58:10.803Z,27.63
2018-09-24T10:00:44.899Z,28.07
2018-09-24T10:03:18.825Z,28.56
2018-09-24T10:05:53.061Z,28.88
2018-09-24T10:08:27.483Z,29.00
2018-09-24T10:11:02.044Z,29.60
2018-09-24T10:13:36.151Z,30.04
2018-09-24T10:16:10.121Z,30.31
2018-09-24T10:18:44.147Z,30.71
2018-09-24T10:21:18.279Z,31.20
2018-09-24T10:23:52.328Z,31.33
2018-09-24T10:26:26.547Z,31.37
2018-09-24T10:29:00.662Z,32.10
2018-09-24T10:31:34.976Z,33.25
2018-09-24T10:34:09.235Z,34.98
2018-09-24T10:36:43.560Z,35.96
2018-09-24T10:39:17.812Z,36.06
2018-09-24T10:41:51.953Z,37.05
2018-09-24T10:44:26.120Z,37.03
2018-09-24T10:47:00.343Z,37.41
2018-09-24T10:49:34.687Z,39.03
2018-09-24T10:52:08.564Z,40.97
2018-09-24T10:54:42.766Z,42.35
2018-09-24T10:57:16.928Z,40.56
2018-09-24T10:59:51.263Z,40.04
2018-09-24T11:02:25.872Z,39.87
2018-09-24T11:05:00.074Z,39.69
2018-09-24T11:07:34.179Z,39.35
2018-09-24T11:10:08.643Z,39.01
2018-09-24T11:12:42.611Z,39.22
2018-09-24T11:15:17.240Z,39.50
2018-09-24T11:17:51.878Z,40.20
2018-09-24T11:20:25.926Z,40.97
2018-09-24T11:23:00.175Z,41.77
2018-09-24T11:25:34.178Z,42.49
2018-09-24T11:28:08.168Z,43.27
2018-09-24T11:30:42.358Z,42.82
2018-09-24T11:33:16.447Z,42.83
2018-09-24T11:35:50.740Z,43.48
2018-09-24T11:38:25.060Z,44.72
2018-09-24T11:40:59.736Z,45.61
2018-09-24T11:43:33.945Z,46.47
2018-09-24T11:46:08.199Z,47.37
2018-09-24T11:48:42.688Z,47.99
2018-09-24T11:51:16.776Z,47.74
2018-09-24T11:53:50.968Z,47.08
2018-09-24T11:56:25.229Z,46.54
2018-09-24T11:59:00.434Z,46.34
2018-09-24T12:01:34.552Z,46.81
2018-09-24T12:04:09.664Z,47.44
2018-09-24T12:06:43.927Z,46.56
2018-09-24T12:09:18.359Z,45.77
2018-09-24T12:11:52.288Z,45.29
2018-09-24T12:14:26.224Z,45.70
2018-09-24T12:17:00.582Z,45.85
2018-09-24T12:19:34.938Z,45.73
2018-09-24T12:22:09.106Z,45.07
2018-09-24T12:24:43.267Z,43.13
2018-09-24T12:27:17.419Z,43.26
2018-09-24T12:29:52.329Z,43.94
2018-09-24T12:32:26.791Z,44.52
2018-09-24T12:35:01.157Z,45.24
2018-09-24T12:37:35.120Z,45.83
2018-09-24T12:40:09.385Z,44.38
2018-09-24T12:42:43.232Z,43.88
2018-09-24T12:45:17.716Z,44.02
2018-09-24T12:47:52.088Z,44.64
2018-09-24T12:50:26.319Z,45.09
2018-09-24T12:53:00.732Z,45.60
2018-09-24T12:55:35.068Z,46.18
2018-09-24T12:58:09.279Z,46.71
2018-09-24T13:00:43.622Z,47.13
2018-09-24T13:03:17.907Z,47.54
2018-09-24T13:05:52.076Z,47.59
2018-09-24T13:08:26.286Z,47.26
2018-09-24T13:11:00.236Z,46.54
2018-09-24T13:13:34.356Z,45.72
2018-09-24T13:16:08.628Z,44.80
2018-09-24T13:18:42.739Z,43.59
2018-09-24T13:21:16.835Z,42.24
2018-09-24T13:23:50.990Z,41.16
2018-09-24T13:26:25.280Z,39.80
2018-09-24T13:28:59.220Z,38.93
2018-09-24T13:31:33.316Z,38.48
2018-09-24T13:34:07.579Z,37.86
2018-09-24T13:36:41.990Z,37.58
2018-09-24T13:39:16.620Z,37.14
2018-09-24T13:41:50.663Z,36.59
2018-09-24T13:44:25.196Z,36.30
2018-09-24T13:46:59.070Z,35.75
2018-09-24T13:49:33.254Z,35.56
2018-09-24T13:52:07.724Z,35.33
2018-09-24T13:54:42.055Z,34.89
2018-09-24T13:57:16.178Z,34.25
2018-09-24T13:59:50.439Z,34.24
2018-09-24T14:02:24.589Z,33.86
2018-09-24T14:04:58.792Z,33.64
2018-09-24T14:07:32.976Z,33.60
2018-09-24T14:10:07.383Z,33.49
2018-09-24T14:12:41.687Z,33.25
2018-09-24T14:15:15.943Z,33.00
2018-09-24T14:17:50.287Z,32.77
2018-09-24T14:20:24.606Z,32.48
2018-09-24T14:22:58.843Z,32.30
2018-09-24T14:25:33.224Z,32.17
2018-09-24T14:28:07.364Z,32.12
2018-09-24T14:30:41.621Z,32.03
2018-09-24T14:33:15.743Z,31.88
2018-09-24T14:35:50.093Z,31.73
2018-09-24T14:38:24.555Z,31.64
2018-09-24T14:40:58.891Z,31.10
2018-09-24T14:43:33.255Z,30.57
2018-09-24T14:46:07.648Z,29.64
2018-09-24T14:48:41.584Z,28.95
2018-09-24T14:51:15.755Z,28.56
2018-09-24T14:53:49.883Z,28.11
2018-09-24T14:56:24.480Z,27.92
2018-09-24T14:58:58.915Z,27.30
2018-09-24T15:01:33.626Z,26.72
2018-09-24T15:04:07.995Z,26.32
2018-09-24T15:06:42.379Z,26.10
2018-09-24T15:09:16.488Z,25.95
2018-09-24T15:11:50.722Z,25.83
2018-09-24T15:14:24.871Z,25.63
2018-09-24T15:16:59.060Z,25.58
2018-09-24T15:19:33.316Z,25.38
2018-09-24T15:22:07.705Z,25.29
2018-09-24T15:24:41.942Z,25.07
2018-09-24T15:27:16.188Z,25.07
2018-09-24T15:29:50.395Z,24.80
2018-09-24T15:32:25.019Z,24.63
2018-09-24T15:34:59.471Z,24.35
2018-09-24T15:37:33.806Z,24.21
2018-09-24T15:40:07.956Z,24.06
2018-09-24T15:42:41.931Z,24.09
2018-09-24T15:45:15.784Z,23.97
2018-09-24T15:47:49.944Z,23.95
2018-09-24T15:50:24.123Z,23.85
2018-09-24T15:52:58.572Z,23.77
2018-09-24T15:55:32.640Z,23.64
2018-09-24T15:58:06.696Z,23.35
2018-09-24T16:00:40.944Z,23.23
2018-09-24T16:03:15.155Z,23.13
2018-09-24T16:05:49.597Z,23.11
2018-09-24T16:08:23.672Z,23.07
2018-09-24T16:10:57.763Z,23.02
2018-09-24T16:13:31.664Z,22.87
2018-09-24T16:16:05.772Z,22.77
2018-09-24T16:18:40.023Z,22.74
2018-09-24T16:21:14.219Z,22.69
2018-09-24T16:23:48.347Z,22.54
2018-09-24T16:26:22.495Z,22.45
2018-09-24T16:28:56.674Z,22.39
2018-09-24T16:31:31.012Z,22.25
2018-09-24T16:34:05.337Z,22.22
2018-09-24T16:36:39.419Z,22.14
2018-09-24T16:39:14.340Z,22.09
2018-09-24T16:41:48.323Z,21.85
2018-09-24T16:44:22.719Z,21.82
2018-09-24T16:46:56.910Z,21.75
2018-09-24T16:49:30.863Z,21.65
2018-09-24T16:52:05.378Z,21.43
2018-09-24T16:54:39.793Z,21.33
2018-09-24T16:57:13.951Z,21.31
2018-09-24T16:59:48.040Z,21.18
2018-09-24T17:02:22.406Z,21.07
2018-09-24T17:04:56.684Z,21.03
2018-09-24T17:07:31.118Z,21.03
2018-09-24T17:10:05.868Z,21.08
2018-09-24T17:12:40.332Z,21.13
2018-09-24T17:15:14.955Z,21.11
2018-09-24T17:17:50.976Z,21.20
2018-09-24T17:20:25.288Z,21.14
2018-09-24T17:22:59.415Z,21.13
2018-09-24T17:25:33.614Z,21.10
2018-09-24T17:28:07.663Z,20.93
2018-09-24T17:30:41.932Z,20.82
2018-09-24T17:33:16.092Z,20.92
2018-09-24T17:35:50.066Z,20.83
2018-09-24T17:38:24.257Z,20.73
2018-09-24T17:40:58.573Z,20.70
2018-09-24T17:43:33.026Z,20.61
2018-09-24T17:46:07.271Z,20.59
2018-09-24T17:48:41.574Z,20.53
2018-09-24T17:51:15.963Z,20.32
2018-09-24T17:53:51.249Z,20.27
2018-09-24T17:56:27.104Z,20.13
2018-09-24T17:59:01.547Z,20.01
2018-09-24T18:01:35.893Z,19.89
2018-09-24T18:04:10.023Z,19.81
2018-09-24T18:06:44.371Z,19.83
2018-09-24T18:09:18.579Z,19.79
2018-09-24T18:11:52.907Z,19.67
2018-09-24T18:14:28.127Z,19.48
2018-09-24T18:17:02.715Z,19.43
2018-09-24T18:19:37.068Z,19.33
2018-09-24T18:22:12.490Z,19.24
2018-09-24T18:24:48.035Z,19.19
2018-09-24T18:27:22.270Z,19.19
2018-09-24T18:29:57.778Z,19.16
2018-09-24T18:32:32.116Z,19.15
2018-09-24T18:35:07.071Z,19.08
2018-09-24T18:37:41.795Z,18.98
2018-09-24T18:40:17.094Z,18.92
2018-09-24T18:42:54.420Z,18.87
2018-09-24T18:45:29.333Z,18.80
2018-09-24T18:48:04.221Z,18.78
2018-09-24T18:50:38.985Z,18.75
2018-09-24T18:53:13.257Z,18.75
2018-09-24T18:55:48.344Z,18.75
2018-09-24T18:58:22.539Z,18.63
2018-09-24T19:00:56.727Z,18.56
2018-09-24T19:03:31.679Z,18.56
2018-09-24T19:06:06.123Z,18.56
2018-09-24T19:08:41.522Z,18.52
2018-09-24T19:11:27.646Z,18.49
2018-09-24T19:13:52.321Z,18.50
2018-09-24T19:16:29.756Z,18.36
2018-09-24T19:19:05.712Z,18.28
2018-09-24T19:21:41.250Z,18.26
2018-09-24T19:24:15.776Z,18.22
2018-09-24T19:26:51.308Z,18.18
2018-09-24T19:29:25.724Z,18.21
2018-09-24T19:32:03.108Z,18.16
2018-09-24T19:34:37.452Z,18.15
2018-09-24T19:37:12.443Z,18.17
2018-09-24T19:39:46.476Z,18.12
2018-09-24T19:42:20.747Z,18.05
2018-09-24T19:44:54.979Z,18.01
2018-09-24T19:47:29.522Z,18.00
2018-09-24T19:50:03.932Z,18.02
2018-09-24T19:52:38.139Z,17.98
2018-09-24T19:55:12.463Z,18.01
2018-09-24T19:57:46.767Z,17.98
2018-09-24T20:00:20.937Z,17.93
2018-09-24T20:02:54.866Z,17.80
2018-09-24T20:05:29.219Z,17.78
2018-09-24T20:08:03.508Z,17.75
2018-09-24T20:10:37.526Z,17.69
2018-09-24T20:13:11.648Z,17.68
2018-09-24T20:15:45.965Z,17.62
2018-09-24T20:18:19.927Z,17.43
2018-09-24T20:20:54.146Z,17.42
2018-09-24T20:23:28.437Z,17.40
2018-09-24T20:26:02.816Z,17.29
2018-09-24T20:28:37.171Z,17.25
2018-09-24T20:31:11.411Z,17.25
2018-09-24T20:33:45.634Z,17.22
2018-09-24T20:36:20.084Z,17.13
2018-09-24T20:38:54.174Z,17.06
2018-09-24T20:41:28.423Z,16.98
2018-09-24T20:44:02.575Z,16.92
2018-09-24T20:46:36.692Z,16.88
2018-09-24T20:49:11.001Z,16.83
2018-09-24T20:51:45.140Z,16.85
2018-09-24T20:54:19.055Z,16.80
2018-09-24T20:56:53.480Z,16.79
2018-09-24T20:59:27.665Z,16.69
2018-09-24T21:02:02.128Z,16.57
2018-09-24T21:04:36.414Z,16.52
2018-09-24T21:07:10.575Z,16.50
2018-09-24T21:09:44.854Z,16.47
2018-09-24T21:12:19.291Z,16.34
2018-09-24T21:14:53.064Z,16.26
2018-09-24T21:17:27.275Z,16.23
2018-09-24T21:20:01.341Z,16.19
2018-09-24T21:22:35.655Z,16.16
2018-09-24T21:25:09.935Z,16.14
2018-09-24T21:27:44.207Z,16.05
2018-09-24T21:30:18.270Z,16.03
2018-09-24T21:32:52.208Z,16.04
2018-09-24T21:35:26.474Z,16.02
2018-09-24T21:38:00.936Z,15.97
2018-09-24T21:40:35.200Z,15.94
2018-09-24T21:43:09.236Z,15.95
2018-09-24T21:45:43.579Z,15.95
2018-09-24T21:48:17.731Z,15.96
2018-09-24T21:50:51.966Z,15.95
2018-09-24T21:53:26.035Z,15.97
2018-09-24T21:56:00.319Z,15.91
2018-09-24T21:58:34.819Z,15.88
2018-09-24T22:01:09.064Z,15.85
2018-09-24T22:03:43.219Z,15.87
2018-09-24T22:06:17.490Z,15.83
2018-09-24T22:08:51.715Z,15.80
2018-09-24T22:11:25.892Z,15.76
2018-09-24T22:14:00.068Z,15.71
2018-09-24T22:16:34.441Z,15.73
2018-09-24T22:19:08.754Z,15.72
2018-09-24T22:21:42.987Z,15.61
2018-09-24T22:24:17.171Z,15.53
2018-09-24T22:26:51.232Z,15.41
2018-09-24T22:29:25.571Z,15.29
2018-09-24T22:31:59.694Z,15.17
2018-09-24T22:34:34.400Z,15.10
2018-09-24T22:37:08.559Z,15.02
2018-09-24T22:39:42.580Z,15.00
2018-09-24T22:42:16.867Z,15.02
2018-09-24T22:44:51.068Z,15.03
2018-09-24T22:47:25.321Z,14.95
2018-09-24T22:49:59.345Z,14.89
2018-09-24T22:52:33.630Z,14.83
2018-09-24T22:55:08.084Z,14.81
2018-09-24T22:57:42.368Z,14.75
2018-09-24T23:00:16.250Z,14.70
2018-09-24T23:02:50.506Z,14.71
2018-09-24T23:05:24.647Z,14.70
2018-09-24T23:07:58.529Z,14.65
2018-09-24T23:10:32.491Z,14.67
2018-09-24T23:13:06.836Z,14.63
2018-09-24T23:15:41.183Z,14.60
2018-09-24T23:18:15.290Z,14.67
2018-09-24T23:20:49.659Z,14.68
2018-09-24T23:23:23.852Z,14.63
2018-09-24T23:25:58.103Z,14.59
2018-09-24T23:28:31.929Z,14.60
2018-09-24T23:31:06.219Z,14.58
2018-09-24T23:33:40.334Z,14.53
2018-09-24T23:36:14.556Z,14.46
2018-09-24T23:38:48.744Z,14.48
2018-09-24T23:41:22.871Z,14.48
2018-09-24T23:43:57.079Z,14.37
2018-09-24T23:46:31.475Z,14.31
2018-09-24T23:49:05.692Z,14.18
2018-09-24T23:51:39.924Z,14.04
2018-09-24T23:54:14.126Z,13.92
2018-09-24T23:56:48.456Z,13.86
2018-09-24T23:59:22.565Z,13.88
